Time;durP1;ratioP1;P1;durP2;ratioP2;P2;SDS_P1;SDS_P2;PMS_P1;PMS_P2;Temp;Humidity;BMP_temperature;BMP_pressure;BME280_temperature;BME280_humidity;BME280_pressure;Samples;Min_cycle;Max_cycle;Signal;HPM_P1;HPM_P2
2021/05/26 00:02:01;;;;;;;14.50;4.65;;;;;;;12.73;77.90;101039.13;4937522;29;20062;-64
2021/05/26 00:04:29;;;;;;;15.00;4.88;;;;;;;12.59;78.83;101040.41;4955216;29;20078;-68
2021/05/26 00:06:56;;;;;;;14.60;5.30;;;;;;;12.69;77.89;101031.81;4954787;29;20131;-64
2021/05/26 00:09:24;;;;;;;12.48;4.97;;;;;;;12.44;78.34;101027.81;4955362;29;20050;-63
2021/05/26 00:11:51;;;;;;;21.25;6.20;;;;;;;12.66;77.93;101035.22;4954339;29;20051;-64
2021/05/26 00:14:18;;;;;;;15.50;5.55;;;;;;;12.50;78.96;101026.50;4938042;29;20058;-64
2021/05/26 00:16:47;;;;;;;16.85;5.68;;;;;;;12.39;79.16;101027.94;4955209;29;20395;-63
2021/05/26 00:19:14;;;;;;;17.45;5.75;;;;;;;12.29;79.53;101009.69;4954634;29;20043;-63
2021/05/26 00:21:42;;;;;;;13.82;5.40;;;;;;;12.37;79.25;101010.88;4954771;29;20055;-63
2021/05/26 00:24:09;;;;;;;17.20;6.18;;;;;;;12.38;79.98;101006.97;4954892;29;20058;-66
2021/05/26 00:26:37;;;;;;;16.13;5.78;;;;;;;12.27;79.99;100991.81;4955103;29;20058;-64
2021/05/26 00:29:04;;;;;;;14.05;5.32;;;;;;;12.39;79.67;100997.56;4937467;29;20376;-64
2021/05/26 00:31:32;;;;;;;13.90;5.63;;;;;;;12.32;80.18;100994.44;4937336;29;20046;-63
2021/05/26 00:33:59;;;;;;;16.17;4.88;;;;;;;12.43;79.90;100982.78;4954886;29;20047;-63
2021/05/26 00:36:27;;;;;;;18.52;5.60;;;;;;;12.41;80.19;100985.03;4954791;29;20506;-63
2021/05/26 00:38:54;;;;;;;11.93;4.85;;;;;;;12.28;81.27;100971.34;4954313;29;20392;-63
2021/05/26 00:41:29;;;;;;;15.63;5.18;;;;;;;12.34;80.99;100978.38;4936909;29;20490;-64
2021/05/26 00:43:58;;;;;;;18.13;5.20;;;;;;;12.48;80.41;100967.19;4954517;29;20043;-66
2021/05/26 00:46:26;;;;;;;14.53;4.57;;;;;;;12.44;80.28;100962.31;4937137;29;20051;-63
2021/05/26 00:48:53;;;;;;;11.18;4.45;;;;;;;12.42;80.32;100956.31;4953247;28;20051;-64
2021/05/26 00:55:50;;;;;;;12.23;4.03;;;;;;;12.34;80.71;100934.97;4936852;29;20405;-64
2021/05/26 00:58:17;;;;;;;11.55;4.10;;;;;;;12.20;81.37;100939.78;4953090;29;20051;-63
2021/05/26 01:00:45;;;;;;;13.85;4.20;;;;;;;12.58;79.61;100931.81;4921615;29;20109;-63
2021/05/26 01:03:15;;;;;;;14.10;4.15;;;;;;;12.38;80.35;100927.69;4954431;29;20051;-63
2021/05/26 01:10:14;;;;;;;14.93;5.22;;;;;;;12.36;80.53;100923.63;4953341;29;20447;-63
2021/05/26 01:12:53;;;;;;;11.77;4.72;;;;;;;12.57;79.93;100901.72;4936329;29;20179;-63
2021/05/26 01:15:22;;;;;;;12.05;4.63;;;;;;;12.40;79.93;100891.44;4954340;29;20054;-64
2021/05/26 01:17:51;;;;;;;12.15;4.90;;;;;;;12.39;78.87;100898.13;4936480;29;20051;-66
2021/05/26 01:25:01;;;;;;;15.10;5.35;;;;;;;12.20;80.20;100890.06;4954179;29;20070;-63
2021/05/26 01:27:30;;;;;;;11.38;4.88;;;;;;;12.19;80.60;100887.63;4936213;29;20047;-64
2021/05/26 01:30:02;;;;;;;10.70;4.32;;;;;;;12.02;81.36;100887.56;4921325;29;20058;-63
2021/05/26 01:32:30;;;;;;;10.13;4.53;;;;;;;12.21;81.09;100882.63;4937026;29;20058;-63
2021/05/26 01:34:58;;;;;;;10.48;4.60;;;;;;;12.17;80.92;100874.16;4937009;29;20383;-65
2021/05/26 01:37:26;;;;;;;12.43;4.60;;;;;;;12.17;81.51;100870.56;4954180;28;20058;-62
2021/05/26 01:39:55;;;;;;;9.55;4.50;;;;;;;12.35;80.72;100863.97;4936347;29;20090;-63
2021/05/26 01:42:33;;;;;;;8.73;4.43;;;;;;;12.33;79.87;100863.47;4953941;29;20051;-63
2021/05/26 01:45:04;;;;;;;10.63;4.57;;;;;;;12.09;80.87;100871.38;4953221;29;20055;-65
2021/05/26 01:47:32;;;;;;;9.13;4.03;;;;;;;12.03;81.56;100861.63;4920803;29;20395;-63
2021/05/26 01:50:04;;;;;;;9.93;4.75;;;;;;;12.17;81.80;100856.75;4936090;29;20055;-65
2021/05/26 01:52:36;;;;;;;9.15;4.82;;;;;;;12.23;80.80;100850.78;4936051;29;20066;-63
2021/05/26 01:55:05;;;;;;;9.35;4.70;;;;;;;12.12;81.46;100849.44;4920310;29;20051;-63
2021/05/26 01:57:33;;;;;;;11.73;4.63;;;;;;;11.97;82.26;100860.13;4935552;29;20058;-64
2021/05/26 02:00:04;;;;;;;12.73;4.68;;;;;;;11.93;82.20;100840.63;4936678;29;20054;-62
2021/05/26 02:02:47;;;;;;;9.88;4.88;;;;;;;12.00;82.44;100843.72;4957644;29;20047;-64
2021/05/26 02:05:16;;;;;;;8.18;4.25;;;;;;;12.31;81.10;100829.84;4940488;29;20043;-64
2021/05/26 02:07:44;;;;;;;9.45;4.50;;;;;;;12.27;80.80;100840.72;4924785;29;20051;-64
2021/05/26 02:10:16;;;;;;;10.10;3.97;;;;;;;12.22;80.95;100826.25;4939507;29;20051;-63
2021/05/26 02:12:45;;;;;;;9.52;4.00;;;;;;;12.21;81.48;100825.44;4939709;29;20509;-63
2021/05/26 02:15:14;;;;;;;9.63;4.38;;;;;;;12.34;80.94;100823.69;4940332;29;20051;-63
2021/05/26 02:17:43;;;;;;;12.40;4.63;;;;;;;12.30;80.60;100828.22;4956649;29;20051;-65
2021/05/26 02:20:11;;;;;;;9.18;4.35;;;;;;;12.51;80.09;100820.94;4940070;29;20051;-64
2021/05/26 02:22:39;;;;;;;10.48;4.57;;;;;;;12.44;80.39;100813.13;4939826;29;20058;-63
2021/05/26 02:25:08;;;;;;;10.05;4.30;;;;;;;12.48;80.53;100815.25;4940207;29;20456;-62
2021/05/26 02:27:35;;;;;;;8.90;3.90;;;;;;;12.44;80.37;100806.78;4957424;29;20118;-64
2021/05/26 02:30:16;;;;;;;10.02;4.07;;;;;;;12.53;80.07;100802.09;4925836;29;20062;-63
2021/05/26 02:32:44;;;;;;;10.20;4.57;;;;;;;12.54;79.96;100794.59;4923349;29;20059;-64
2021/05/26 02:35:13;;;;;;;7.72;4.07;;;;;;;12.37;79.84;100803.69;4939767;29;20433;-63
2021/05/26 02:37:40;;;;;;;10.52;4.05;;;;;;;12.36;80.94;100794.59;4924029;29;20049;-63
2021/05/26 02:40:10;;;;;;;7.97;4.03;;;;;;;12.22;81.85;100790.38;4956863;29;20388;-63
2021/05/26 02:42:38;;;;;;;7.40;3.80;;;;;;;12.28;81.79;100797.34;4938946;29;20426;-63
2021/05/26 02:45:08;;;;;;;7.55;3.35;;;;;;;12.44;81.23;100802.09;4939493;29;20054;-62
2021/05/26 02:47:36;;;;;;;8.38;3.70;;;;;;;12.50;80.69;100786.13;4939166;29;20070;-64
2021/05/26 02:50:04;;;;;;;7.82;3.92;;;;;;;12.51;80.62;100789.72;4939152;29;20083;-63
2021/05/26 02:56:59;;;;;;;6.90;3.40;;;;;;;12.48;80.99;100786.47;4878149;29;20060;-63
2021/05/26 02:59:45;;;;;;;10.27;4.00;;;;;;;12.52;80.84;100786.63;4860358;29;20054;-64
2021/05/26 03:02:18;;;;;;;7.53;3.60;;;;;;;12.33;81.35;100795.25;4860120;29;20050;-63
2021/05/26 03:04:52;;;;;;;9.55;4.30;;;;;;;12.28;81.43;100783.53;4844059;29;20062;-65
2021/05/26 03:11:48;;;;;;;8.95;3.40;;;;;;;12.55;80.52;100783.25;4914707;29;20059;-64
2021/05/26 03:14:23;;;;;;;7.85;3.53;;;;;;;12.45;81.65;100791.84;4920213;29;20528;-65
2021/05/26 03:16:54;;;;;;;7.18;3.70;;;;;;;12.62;80.75;100789.09;4905005;29;20056;-64
2021/05/26 03:19:23;;;;;;;10.25;3.97;;;;;;;12.66;79.99;100780.97;4919703;29;20059;-65
2021/05/26 03:26:29;;;;;;;8.43;3.53;;;;;;;12.31;82.38;100780.13;4936453;29;20071;-65
2021/05/26 03:28:57;;;;;;;8.43;3.78;;;;;;;12.44;82.16;100773.66;4920021;29;20047;-64
2021/05/26 03:31:24;;;;;;;7.47;3.88;;;;;;;12.51;82.42;100765.69;4936297;29;20067;-63
2021/05/26 03:33:51;;;;;;;7.82;3.70;;;;;;;12.56;82.02;100782.09;4919878;29;20063;-65
2021/05/26 03:40:53;;;;;;;10.90;3.80;;;;;;;12.61;82.04;100765.34;4919716;29;20059;-64
2021/05/26 03:43:28;;;;;;;8.63;4.35;;;;;;;12.75;81.05;100763.22;4918901;29;20480;-65
2021/05/26 03:45:57;;;;;;;8.55;3.60;;;;;;;12.65;81.29;100754.47;4919000;29;20404;-66
2021/05/26 03:48:24;;;;;;;9.40;3.22;;;;;;;12.65;81.31;100763.56;4903632;29;20051;-64
2021/05/26 03:55:22;;;;;;;6.50;3.20;;;;;;;12.85;80.59;100756.56;4918952;29;20055;-64
2021/05/26 03:57:53;;;;;;;6.30;2.85;;;;;;;12.96;80.23;100757.81;4925403;29;20056;-64
2021/05/26 04:00:22;;;;;;;6.70;2.80;;;;;;;12.86;80.34;100761.75;4938413;29;20070;-63
2021/05/26 04:03:08;;;;;;;8.32;2.80;;;;;;;12.60;81.11;100755.44;4938122;29;20488;-63
2021/05/26 04:05:37;;;;;;;6.95;3.05;;;;;;;12.89;80.88;100766.63;4938271;29;20063;-64
2021/05/26 04:08:05;;;;;;;10.25;3.60;;;;;;;12.77;81.34;100758.19;4938198;29;20055;-63
2021/05/26 04:10:35;;;;;;;6.22;2.47;;;;;;;12.85;81.06;100762.88;4938258;29;20046;-66
2021/05/26 04:13:29;;;;;;;6.75;2.38;;;;;;;12.46;82.33;100749.28;4937893;29;20066;-64
2021/05/26 04:16:01;;;;;;;4.75;2.35;;;;;;;12.78;81.97;100754.28;4937225;29;20047;-64
2021/05/26 04:18:31;;;;;;;5.70;2.70;;;;;;;12.86;81.33;100753.47;4954519;29;20055;-65
2021/05/26 04:25:28;;;;;;;5.85;1.95;;;;;;;12.76;81.54;100750.22;4937141;29;20055;-65
2021/05/26 04:27:57;;;;;;;6.35;2.08;;;;;;;12.95;80.51;100757.03;4937945;29;20051;-65
2021/05/26 04:30:25;;;;;;;4.65;1.77;;;;;;;12.91;80.05;100750.53;4954814;29;20051;-68
2021/05/26 04:32:53;;;;;;;5.28;1.80;;;;;;;13.07;79.29;100754.44;4954922;29;20051;-65
2021/05/26 04:35:24;;;;;;;3.58;1.60;;;;;;;12.97;79.33;100746.44;4937160;29;20055;-65
2021/05/26 04:37:52;;;;;;;4.15;1.73;;;;;;;13.08;79.56;100742.22;4937230;29;20047;-64
2021/05/26 04:40:20;;;;;;;3.78;1.55;;;;;;;12.79;80.31;100753.16;4937058;29;20062;-64
2021/05/26 04:42:47;;;;;;;4.25;1.58;;;;;;;12.78;80.86;100745.97;4954790;29;20059;-64
2021/05/26 04:45:25;;;;;;;3.55;1.50;;;;;;;12.91;79.95;100758.81;5108353;27;20347;-65
2021/05/26 04:47:52;;;;;;;3.25;1.50;;;;;;;12.72;81.18;100747.31;5106453;28;20058;-65
2021/05/26 04:50:21;;;;;;;4.90;1.40;;;;;;;12.81;81.28;100752.81;5090040;28;20044;-64
2021/05/26 04:52:48;;;;;;;2.15;1.08;;;;;;;13.04;80.06;100754.28;5108027;28;20056;-64
2021/05/26 04:55:16;;;;;;;3.53;1.15;;;;;;;13.04;79.56;100766.13;5107893;28;20048;-63
2021/05/26 04:57:45;;;;;;;4.78;1.30;;;;;;;13.10;79.33;100762.06;5108350;28;20055;-65
2021/05/26 05:00:13;;;;;;;6.95;1.33;;;;;;;12.81;80.06;100761.13;5108400;28;20048;-64
2021/05/26 05:02:41;;;;;;;6.38;1.33;;;;;;;12.56;81.84;100771.03;5108457;28;20048;-63
2021/05/26 05:05:09;;;;;;;3.92;1.08;;;;;;;12.44;82.71;100768.94;5106512;28;20048;-64
2021/05/26 05:07:39;;;;;;;2.95;1.30;;;;;;;12.62;82.19;100764.22;5107977;28;20070;-64
2021/05/26 05:10:07;;;;;;;2.15;0.98;;;;;;;12.42;82.47;100776.72;5107551;28;20052;-64
2021/05/26 05:12:34;;;;;;;2.88;0.80;;;;;;;12.46;82.40;100791.50;5108005;28;20052;-66
2021/05/26 05:15:04;;;;;;;2.42;0.90;;;;;;;12.33;82.87;100797.19;5108317;28;20074;-64
2021/05/26 05:17:31;;;;;;;2.42;0.85;;;;;;;12.21;82.29;100800.59;5107808;28;20048;-67
2021/05/26 05:20:00;;;;;;;3.75;0.90;;;;;;;12.24;82.13;100807.41;5107630;28;20052;-65
2021/05/26 05:22:28;;;;;;;3.65;0.75;;;;;;;12.32;81.43;100820.44;5107645;28;20059;-64
2021/05/26 05:24:55;;;;;;;2.88;0.70;;;;;;;12.46;80.38;100824.66;5105738;28;20051;-64
2021/05/26 05:27:22;;;;;;;4.80;0.90;;;;;;;12.31;79.13;100825.13;5140763;27;20052;-63
2021/05/26 05:29:50;;;;;;;1.15;0.60;;;;;;;12.21;78.78;100830.13;5105850;28;20044;-65
2021/05/26 05:32:18;;;;;;;4.30;0.90;;;;;;;12.28;78.38;100827.72;5107978;28;20067;-63
2021/05/26 05:34:45;;;;;;;1.95;0.80;;;;;;;11.93;78.13;100850.84;5107700;28;20047;-64
2021/05/26 05:37:12;;;;;;;3.70;0.90;;;;;;;12.01;79.04;100853.63;5107459;28;20419;-64
2021/05/26 05:39:40;;;;;;;2.67;0.55;;;;;;;12.10;77.82;100843.44;5107386;28;20050;-64
2021/05/26 05:42:07;;;;;;;3.65;0.57;;;;;;;11.95;77.86;100845.81;5105882;28;20040;-64
2021/05/26 05:44:34;;;;;;;2.03;0.60;;;;;;;11.93;77.67;100850.84;5104867;28;20051;-64
2021/05/26 05:47:02;;;;;;;3.00;0.80;;;;;;;11.90;78.11;100857.84;5106128;28;20044;-64
2021/05/26 05:49:29;;;;;;;2.92;0.90;;;;;;;12.06;77.29;100861.78;5106903;28;20055;-64
2021/05/26 05:51:57;;;;;;;1.50;0.63;;;;;;;11.94;77.46;100866.28;5106629;28;20048;-64
2021/05/26 05:54:24;;;;;;;2.50;0.73;;;;;;;11.85;78.40;100873.72;5107632;28;20058;-68
2021/05/26 05:56:51;;;;;;;1.65;0.70;;;;;;;12.11;78.02;100880.16;5086258;28;20044;-64
2021/05/26 05:59:19;;;;;;;3.33;0.85;;;;;;;12.08;77.42;100887.13;5112055;27;20048;-65
2021/05/26 06:01:46;;;;;;;3.35;0.85;;;;;;;11.96;78.57;100889.66;5090365;28;20060;-64
2021/05/26 06:04:14;;;;;;;2.88;1.02;;;;;;;12.28;78.30;100899.53;5093335;28;20392;-65
2021/05/26 06:06:41;;;;;;;3.15;0.90;;;;;;;12.26;77.52;100899.03;5093228;28;20048;-65
2021/05/26 06:09:08;;;;;;;5.20;0.93;;;;;;;12.05;78.23;100900.75;5092703;28;20130;-65
2021/05/26 06:11:36;;;;;;;1.98;0.90;;;;;;;12.27;77.69;100900.69;5093217;28;20044;-66
2021/05/26 06:14:05;;;;;;;4.53;0.95;;;;;;;12.30;77.45;100905.56;5092700;28;20064;-66
2021/05/26 06:16:38;;;;;;;2.28;0.73;;;;;;;12.02;78.18;100902.22;5093324;28;20376;-66
2021/05/26 06:19:06;;;;;;;4.10;1.10;;;;;;;12.07;79.21;100915.03;5092617;28;20056;-64
2021/05/26 06:21:34;;;;;;;3.13;1.00;;;;;;;12.22;79.22;100915.44;5092204;28;20052;-64
2021/05/26 06:24:02;;;;;;;5.75;1.10;;;;;;;12.40;78.29;100930.94;5091188;28;20059;-66
2021/05/26 06:26:31;;;;;;;4.53;1.00;;;;;;;12.31;77.04;100934.78;5093148;28;20036;-63
2021/05/26 06:29:03;;;;;;;6.77;1.57;;;;;;;12.02;78.90;100934.50;5093016;28;20059;-63
2021/05/26 06:31:32;;;;;;;1.20;0.70;;;;;;;11.95;79.45;100940.50;5074073;28;20056;-64
2021/05/26 06:33:59;;;;;;;6.30;0.88;;;;;;;12.10;79.56;100951.13;5092557;28;20056;-64
2021/05/26 06:36:33;;;;;;;4.50;1.35;;;;;;;11.98;78.87;100952.84;5076987;28;20053;-65
2021/05/26 06:39:02;;;;;;;4.00;1.05;;;;;;;11.89;79.83;100949.25;5087828;28;20047;-64
2021/05/26 06:41:31;;;;;;;3.80;1.20;;;;;;;12.20;79.62;100955.56;5113476;27;20055;-67
2021/05/26 06:44:00;;;;;;;;;;;;;;;12.08;78.26;100966.38;5084574;28;20040;-65
2021/05/26 06:46:29;;;;;;;2.67;0.85;;;;;;;12.15;78.69;100970.31;5089040;28;19931;-64
2021/05/26 06:48:57;;;;;;;7.93;1.05;;;;;;;11.93;79.18;100975.88;5088405;28;20039;-63
2021/05/26 06:51:26;;;;;;;2.35;1.17;;;;;;;11.86;77.88;100989.31;5076672;28;20067;-63
2021/05/26 06:53:55;;;;;;;5.80;0.70;;;;;;;11.75;77.16;100998.19;5099206;28;20059;-65
2021/05/26 06:56:23;;;;;;;2.60;0.67;;;;;;;11.83;76.55;100995.47;5085082;28;20036;-64
2021/05/26 06:58:50;;;;;;;1.55;0.70;;;;;;;11.88;77.07;100998.09;5086869;28;20328;-63
2021/05/26 07:01:24;;;;;;;1.58;0.63;;;;;;;12.08;74.94;101000.31;5072321;28;20430;-61
2021/05/26 07:03:51;;;;;;;3.58;0.50;;;;;;;12.17;75.15;101005.88;5072161;28;20067;-63
2021/05/26 07:06:19;;;;;;;2.22;0.70;;;;;;;11.97;75.02;101014.72;5072119;28;20051;-66
2021/05/26 07:08:47;;;;;;;5.18;0.63;;;;;;;11.85;74.98;101014.47;5071652;28;20048;-64
2021/05/26 07:11:14;;;;;;;2.22;0.60;;;;;;;11.96;75.29;101013.88;5073462;27;20057;-65
2021/05/26 07:13:42;;;;;;;2.80;0.57;;;;;;;11.85;75.83;101011.72;5078005;28;20051;-64
2021/05/26 07:16:09;;;;;;;5.00;0.80;;;;;;;11.70;76.05;101018.41;5077293;28;20135;-66
2021/05/26 07:18:37;;;;;;;3.35;0.60;;;;;;;11.75;76.35;101011.97;5086317;28;20036;-63
2021/05/26 07:21:04;;;;;;;4.13;0.98;;;;;;;11.63;76.89;101025.50;5083833;28;20056;-64
2021/05/26 07:23:32;;;;;;;1.98;0.52;;;;;;;11.85;75.93;101022.75;5071392;28;20404;-64
2021/05/26 07:25:59;;;;;;;5.00;0.80;;;;;;;11.71;76.48;101038.56;5084635;28;20059;-66
2021/05/26 07:28:27;;;;;;;4.05;0.88;;;;;;;11.68;76.50;101025.41;5091713;28;20463;-63
2021/05/26 07:30:55;;;;;;;3.90;0.50;;;;;;;11.82;76.99;101026.94;5090397;28;20139;-64
2021/05/26 07:33:23;;;;;;;4.43;0.68;;;;;;;11.93;76.14;101030.25;5099379;28;20051;-65
2021/05/26 07:35:50;;;;;;;1.58;0.60;;;;;;;11.90;73.98;101045.53;5094142;28;20059;-65
2021/05/26 07:38:36;;;;;;;2.80;0.70;;;;;;;11.84;72.75;101048.69;5086446;28;20063;-64
2021/05/26 07:41:04;;;;;;;4.20;1.00;;;;;;;12.11;72.50;101043.06;5089702;28;20036;-64
2021/05/26 07:43:33;;;;;;;3.75;1.20;;;;;;;12.01;71.85;101041.38;5072654;28;20395;-67
2021/05/26 07:46:02;;;;;;;2.30;0.88;;;;;;;12.10;72.04;101033.16;5082308;28;20406;-63
2021/05/26 07:48:30;;;;;;;1.83;0.80;;;;;;;12.04;71.46;101045.44;5087864;28;20040;-62
2021/05/26 07:50:57;;;;;;;2.38;0.73;;;;;;;11.96;71.92;101062.78;5080449;28;20055;-64
2021/05/26 07:53:25;;;;;;;3.72;0.80;;;;;;;12.05;71.78;101050.66;5081690;28;20055;-65
2021/05/26 07:55:52;;;;;;;6.38;1.00;;;;;;;12.35;71.51;101043.53;5085842;28;20059;-66
2021/05/26 07:58:20;;;;;;;3.78;0.80;;;;;;;12.11;71.82;101060.44;5080381;28;20551;-67
2021/05/26 08:00:50;;;;;;;1.88;0.60;;;;;;;12.11;72.86;101071.50;5088447;28;20052;-63
2021/05/26 08:03:18;;;;;;;2.97;0.70;;;;;;;12.10;73.39;101063.53;5088556;28;20052;-64
2021/05/26 08:05:46;;;;;;;3.58;1.00;;;;;;;11.92;73.85;101070.88;5084901;28;20056;-64
2021/05/26 08:08:14;;;;;;;2.45;0.95;;;;;;;11.84;74.87;101062.50;5086208;28;20122;-63
2021/05/26 08:10:42;;;;;;;4.60;1.02;;;;;;;11.88;74.39;101075.38;5091091;28;20052;-64
2021/05/26 08:13:09;;;;;;;6.80;1.30;;;;;;;11.94;74.22;101074.13;5090290;28;20044;-63
2021/05/26 08:15:37;;;;;;;5.53;1.20;;;;;;;12.25;72.08;101076.94;5088031;28;20059;-66
2021/05/26 08:18:10;;;;;;;3.80;1.02;;;;;;;12.31;70.24;101090.28;5079180;28;20044;-64
2021/05/26 08:20:41;;;;;;;3.55;0.93;;;;;;;12.29;70.15;101081.50;5076417;28;20055;-66
2021/05/26 08:23:08;;;;;;;;;;;;;;;12.63;70.35;101075.34;5088391;28;20043;-65
2021/05/26 08:25:35;;;;;;;7.65;1.10;;;;;;;12.28;70.57;101070.78;5078764;28;19920;-66
2021/05/26 08:28:03;;;;;;;4.82;1.23;;;;;;;12.59;69.71;101081.84;5086023;27;20056;-65
2021/05/26 08:30:31;;;;;;;3.95;0.90;;;;;;;12.85;67.62;101085.53;5079072;28;20070;-65
2021/05/26 08:32:59;;;;;;;2.70;0.90;;;;;;;12.48;67.37;101097.06;5078620;28;20056;-67
2021/05/26 08:35:26;;;;;;;3.22;0.90;;;;;;;12.27;68.09;101086.53;5084196;28;20503;-64
2021/05/26 08:37:57;;;;;;;5.10;1.25;;;;;;;12.28;68.28;101090.09;5082921;27;20059;-64
2021/05/26 08:40:25;;;;;;;3.80;1.42;;;;;;;12.21;67.81;101098.03;5082715;28;20044;-65
2021/05/26 08:42:54;;;;;;;4.57;1.00;;;;;;;12.25;67.60;101096.28;5085477;28;20055;-64
2021/05/26 08:45:21;;;;;;;6.30;1.33;;;;;;;12.16;68.58;101096.22;5084687;28;20486;-63
2021/05/26 08:47:52;;;;;;;6.70;1.00;;;;;;;12.70;68.50;101092.28;5083649;28;20387;-66
2021/05/26 08:50:20;;;;;;;4.15;0.95;;;;;;;12.86;65.93;101090.75;5081116;28;20052;-64
2021/05/26 08:52:47;;;;;;;4.18;1.10;;;;;;;13.01;66.28;101087.53;5085902;28;20048;-66
2021/05/26 08:55:15;;;;;;;2.72;1.00;;;;;;;13.14;64.53;101081.09;5088182;28;20063;-64
2021/05/26 08:57:43;;;;;;;3.78;1.15;;;;;;;13.14;64.86;101091.34;5083726;28;20040;-64
2021/05/26 09:00:11;;;;;;;4.45;1.35;;;;;;;13.02;66.23;101082.84;5083923;28;20044;-63
2021/05/26 09:02:39;;;;;;;5.95;1.52;;;;;;;12.77;66.29;101092.66;5089836;28;20047;-64
2021/05/26 09:05:29;;;;;;;7.57;1.55;;;;;;;12.62;65.31;101089.50;5089421;28;20052;-62
2021/05/26 09:07:58;;;;;;;6.07;1.42;;;;;;;12.46;63.14;101092.66;5087388;28;20099;-64
2021/05/26 09:10:26;;;;;;;5.63;1.50;;;;;;;12.77;62.90;101094.59;5107591;28;20044;-65
2021/05/26 09:12:57;;;;;;;7.55;1.75;;;;;;;12.82;62.06;101091.69;5078763;28;20052;-63
2021/05/26 09:15:24;;;;;;;5.55;1.60;;;;;;;12.97;61.77;101097.59;5070268;28;20419;-64
2021/05/26 09:17:56;;;;;;;5.22;1.85;;;;;;;12.92;61.17;101092.22;5087599;28;20071;-66
2021/05/26 09:20:31;;;;;;;7.18;2.00;;;;;;;13.07;61.68;101088.22;5069960;28;20424;-64
2021/05/26 09:23:08;;;;;;;5.65;1.50;;;;;;;13.22;61.51;101090.53;5070762;28;20057;-63
2021/05/26 09:25:50;;;;;;;6.03;1.40;;;;;;;13.00;61.85;101088.69;5082517;28;20337;-66
2021/05/26 09:28:20;;;;;;;7.43;1.52;;;;;;;12.97;62.80;101091.28;5085213;28;20238;-65
2021/05/26 09:30:54;;;;;;;8.75;1.52;;;;;;;13.28;63.27;101092.84;5092033;28;20433;-64
2021/05/26 09:33:43;;;;;;;5.40;1.27;;;;;;;13.13;63.45;101084.16;5075086;28;20074;-64
2021/05/26 09:36:19;;;;;;;5.80;1.65;;;;;;;13.10;64.45;101088.41;5085265;28;20446;-62
2021/05/26 09:38:53;;;;;;;8.13;1.83;;;;;;;13.51;64.18;101099.09;5084799;28;20044;-62
2021/05/26 09:41:30;;;;;;;7.72;1.80;;;;;;;14.01;61.90;101089.16;5085712;28;20056;-62
2021/05/26 09:44:00;;;;;;;6.18;1.70;;;;;;;14.19;59.63;101099.06;5100437;28;20062;-62
2021/05/26 09:46:30;;;;;;;5.18;1.60;;;;;;;14.54;59.07;101095.09;5088190;28;20515;-65
2021/05/26 09:49:17;;;;;;;6.38;1.90;;;;;;;14.09;57.49;101093.03;5088724;28;20052;-62
2021/05/26 09:51:57;;;;;;;6.03;1.55;;;;;;;13.81;58.74;101100.09;5082126;28;20036;-65
2021/05/26 09:54:49;;;;;;;4.75;1.45;;;;;;;14.00;58.29;101106.91;5073771;28;20495;-65
2021/05/26 09:57:17;;;;;;;10.38;2.13;;;;;;;14.19;57.61;101095.50;5072542;28;20075;-64
2021/05/26 09:59:44;;;;;;;6.45;1.60;;;;;;;14.68;57.46;101095.72;5073244;28;20057;-66
2021/05/26 10:02:15;;;;;;;;;;;;;;;14.80;58.96;101094.22;5089868;28;20051;-64
2021/05/26 10:04:44;;;;;;;7.00;1.80;;;;;;;14.94;58.66;101105.91;5092812;28;19927;-65
2021/05/26 10:07:30;;;;;;;10.27;2.30;;;;;;;14.50;60.71;101110.78;5085316;28;20214;-64
2021/05/26 10:09:58;;;;;;;5.13;2.15;;;;;;;14.18;60.83;101121.56;5111173;27;20428;-64
2021/05/26 10:12:34;;;;;;;2.88;1.40;;;;;;;14.50;59.51;101113.56;5076990;28;20053;-66
2021/05/26 10:15:03;;;;;;;2.97;1.52;;;;;;;14.97;58.91;101121.88;5084754;28;20052;-64
2021/05/26 10:17:38;;;;;;;5.97;1.83;;;;;;;15.16;57.04;101117.53;5093060;28;20452;-65
2021/05/26 10:20:09;;;;;;;5.68;2.03;;;;;;;15.13;55.01;101120.97;5077189;28;20060;-65
2021/05/26 10:22:38;;;;;;;4.07;2.13;;;;;;;14.66;56.59;101116.63;5078676;28;20047;-66
2021/05/26 10:25:07;;;;;;;6.32;2.08;;;;;;;15.15;56.55;101107.56;5079875;28;20048;-66
2021/05/26 10:27:38;;;;;;;4.97;2.15;;;;;;;15.09;56.41;101114.47;5114893;27;20048;-65
2021/05/26 10:30:07;;;;;;;8.07;3.00;;;;;;;15.12;56.08;101116.56;5073035;28;20052;-65
2021/05/26 10:33:03;;;;;;;6.43;2.90;;;;;;;15.64;56.31;101109.59;5065876;28;20040;-65
2021/05/26 10:35:56;;;;;;;7.55;2.42;;;;;;;15.40;55.75;101125.25;5052444;28;20055;-65
2021/05/26 10:38:25;;;;;;;7.18;2.30;;;;;;;15.35;55.04;101123.47;5064995;28;20040;-66
2021/05/26 10:40:59;;;;;;;9.45;2.75;;;;;;;14.40;56.46;101130.50;5089517;28;20059;-65
2021/05/26 10:43:27;;;;;;;6.43;2.58;;;;;;;14.65;55.29;101121.34;5083992;28;20049;-64
2021/05/26 10:45:56;;;;;;;7.03;2.65;;;;;;;14.48;56.53;101134.44;5071862;28;20495;-65
2021/05/26 10:48:39;;;;;;;11.52;2.90;;;;;;;14.63;56.83;101128.34;5059899;28;20510;-65
2021/05/26 10:51:11;;;;;;;9.90;2.80;;;;;;;14.53;56.87;101128.69;5055236;28;20495;-67
2021/05/26 10:53:43;;;;;;;8.82;2.47;;;;;;;14.42;55.16;101125.47;5072051;28;20044;-63
2021/05/26 10:56:36;;;;;;;9.32;2.20;;;;;;;14.63;55.23;101123.63;5077452;28;20067;-64
2021/05/26 10:59:11;;;;;;;5.20;1.95;;;;;;;15.04;53.61;101116.63;5083370;28;20056;-65
2021/05/26 11:02:10;;;;;;;5.35;2.03;;;;;;;15.47;53.22;101122.78;5088050;28;20040;-65
2021/05/26 11:04:39;;;;;;;4.90;2.00;;;;;;;15.96;52.61;101118.34;4945510;28;20054;-64
2021/05/26 11:07:24;;;;;;;5.90;2.10;;;;;;;15.49;52.53;101123.25;4979830;28;20065;-66
2021/05/26 11:10:06;;;;;;;5.75;2.25;;;;;;;15.39;52.72;101112.53;5003297;28;20061;-65
2021/05/26 11:13:12;;;;;;;6.25;1.90;;;;;;;15.63;51.32;101115.50;5006119;28;20448;-65
2021/05/26 11:15:44;;;;;;;7.47;2.20;;;;;;;15.83;52.39;101109.09;4916827;29;20048;-67
2021/05/26 11:20:52;;;;;;;5.63;2.60;;;;;;;16.03;51.57;101116.63;4922906;29;20043;-65
2021/05/26 11:23:20;;;;;;;4.38;2.05;;;;;;;16.20;49.73;101112.88;4928373;29;20063;-66
2021/05/26 11:25:55;;;;;;;8.02;2.28;;;;;;;15.65;51.66;101111.22;4914669;29;20051;-66
2021/05/26 11:28:28;;;;;;;4.78;2.05;;;;;;;15.85;51.30;101108.81;4912202;29;20052;-63
2021/05/26 11:31:07;;;;;;;6.65;1.90;;;;;;;16.26;48.95;101117.91;4913201;29;20063;-64
2021/05/26 11:33:35;;;;;;;4.43;1.48;;;;;;;15.94;49.37;101117.84;4896733;29;20063;-64
2021/05/26 11:36:05;;;;;;;5.25;1.60;;;;;;;16.06;49.30;101117.91;4892113;29;20069;-65
2021/05/26 11:38:34;;;;;;;5.22;1.73;;;;;;;16.21;49.44;101115.34;4913145;29;20452;-64
2021/05/26 11:41:29;;;;;;;6.15;1.90;;;;;;;16.54;48.81;101113.41;4931370;28;20042;-63
2021/05/26 11:43:57;;;;;;;7.07;1.60;;;;;;;16.28;49.35;101110.03;5002875;28;20046;-62
2021/05/26 11:46:25;;;;;;;6.15;2.08;;;;;;;16.11;49.36;101121.28;5031588;28;20523;-65
2021/05/26 11:48:52;;;;;;;5.70;1.92;;;;;;;15.90;50.18;101117.72;5072528;28;20048;-63
2021/05/26 11:51:24;;;;;;;9.70;1.85;;;;;;;16.22;50.46;101118.91;5069475;28;20044;-64
2021/05/26 11:53:56;;;;;;;7.65;2.05;;;;;;;16.45;49.30;101117.38;5051847;28;20049;-64
2021/05/26 11:56:23;;;;;;;5.07;1.60;;;;;;;16.59;49.92;101123.47;5070677;28;20048;-62
2021/05/26 11:58:51;;;;;;;7.60;2.38;;;;;;;16.67;49.37;101122.56;5075501;28;20052;-64
2021/05/26 12:01:18;;;;;;;5.90;1.70;;;;;;;16.97;48.12;101120.41;5075586;28;20499;-64
2021/05/26 12:03:47;;;;;;;6.43;1.90;;;;;;;16.71;48.97;101104.84;5076700;28;20048;-65
2021/05/26 12:06:19;;;;;;;5.90;1.52;;;;;;;17.17;48.72;101103.63;5081841;28;20048;-65
2021/05/26 12:08:47;;;;;;;6.75;1.65;;;;;;;17.07;48.71;101097.72;5089718;28;20190;-64
2021/05/26 12:11:22;;;;;;;7.00;2.15;;;;;;;16.71;48.74;101099.28;5084851;28;20040;-66
2021/05/26 12:13:51;;;;;;;7.60;2.72;;;;;;;17.06;49.90;101091.31;5085631;28;20048;-64
2021/05/26 12:16:22;;;;;;;10.10;1.90;;;;;;;16.86;48.92;101098.59;5062988;28;20056;-65
2021/05/26 12:18:52;;;;;;;6.32;1.83;;;;;;;16.55;49.65;101103.06;5031673;28;20044;-63
2021/05/26 12:21:24;;;;;;;6.80;2.08;;;;;;;16.25;51.35;101107.13;5082218;28;20047;-64
2021/05/26 12:24:07;;;;;;;8.40;1.77;;;;;;;16.71;49.62;101106.81;5066009;28;20052;-65